Información del aeropuerto SCGZ

Información de pista
Pista 08 Longitud 4724 ft Anchura 95 ft
Elevación 88 ft Umbral 0 ft Rumbo 91
Pista 26 Longitud 4724 ft Anchura 95 ft
Elevación 42 ft Umbral 0 ft Rumbo 271
Frecuencias del aeropuerto
Tipo TWR Nombre WILLIAMS A Frecuencia 118.5 MHZ
Radioayudas del aeropuerto
Tipo VOR-DME Nombre Puerto Williams Frecuencia 114900 KHZ
Información meteorológica del aeropuerto y NOTAM
ADDS - METARS form results

(1444 UTC 24 November 2020)
Data provider http://aviationweather.gov/metar/data/
 
METAR text: SCGZ 241400Z 29008KT 9999 FEW040 BKN046 09/02 Q0988
Conditions at: SCGZ (GUARDIAMARINA , CL) observed 1400 UTC 24 November 2020
Temperature: 9.0°C (48°F)
Dewpoint: 2.0°C (36°F) [RH = 61%]
Pressure (altimeter): 29.17 inches Hg (988.0 mb)
Winds: from the WNW (290 degrees) at 9 MPH (8 knots; 4.1 m/s)
Visibility: 6 or more miles (10+ km)
Ceiling: 4600 feet AGL
Clouds: few clouds at 4000 feet AGL
broken clouds at 4600 feet AGL
Weather: no significant weather observed at this time